Mansfield, OH

6:24 PM EST on December 22, 2014 (GMT -0500)
Mansfield Lahm Regional | Change Station
CLOSE
Current Station
Airport
Location: Mansfield,
Elevation: 1296 ft
Nearby Weather Stations

Elev 1296 ft 40.82 °N, 82.52 °W | Updated 32 minutes ago

Partly Cloudy
Partly Cloudy
38 °F
Feels Like 32 °F
N
9
Wind Variable Wind from ESE

Today
High -- | Low -- °F
--% Chance of Precip.
Yesterday
High -- | Low -- °F
Precip. -- in
7:51 AM 5:06 PM
New Moon, 1% visible
Pressure 29.92 in
Visibility 9.0 miles
Clouds Clear
Windchill 32 °F
Dew Point 33 °F
Humidity 83%
Rainfall 0.00 in
Snow Depth Not available.
UV 0 out of 12
Pollen .10 out of 12
Air Quality Not available.
Flu Activity Not available.
METAR KMFD 222252Z 11008KT 9SM CLR 03/01 A2988 RMK AO2 SLP132 T00330006

More Conditions Fewer Conditions

Pressure 29.92 in
Visibility 9.0 miles
Clouds Clear
Windchill 32 °F
Dew Point 33 °F
Humidity 83%
Rainfall 0.00 in
Snow Depth Not available.
UV 0 out of 12
Pollen .10 out of 12
Air Quality Not available.
Flu Activity Not available.
METAR KMFD 222252Z 11008KT 9SM CLR 03/01 A2988 RMK AO2 SLP132 T00330006

More Conditions Fewer Conditions

10-Day Weather Forecast

Almanac

Astronomy

Dec. 22, 2014 Rise Set
Actual Time
Civil Twilight
Nautical Twilight
Astronomical Twilight
Moon
Length of Visible Light
Length of Day
Tomorrow will be .
, % of the Moon is Illuminated

Today's Extremes

State Highs State Lows

Community

WunderPhotos

Upload Photos

1,779,713 photos uploaded!

WunderBlogs® & News

Nearby

Air Quality

  Air Quality AQ Index Pollutant
Not available.

Snow Depth

Station Depth Elevation

Earthquake Activity

City Distance Mag. Time & Date
Minimum magnitude displayed is 2.5.

Coastal Water Temperatures

Place Temperature

Nearby Weather Stations